Time;durP1;ratioP1;P1;durP2;ratioP2;P2;SDS_P1;SDS_P2;PMS_P1;PMS_P2;Temp;Humidity;BMP_temperature;BMP_pressure;BME280_temperature;BME280_humidity;BME280_pressure;Samples;Min_cycle;Max_cycle;Signal;HPM_P1;HPM_P2
2023/04/22 00:01:59;;;;;;;17.23;14.80;;;10.60;99.90;;;;;;7365761;19;20019;-64
2023/04/22 00:04:25;;;;;;;19.92;17.27;;;10.50;99.90;;;;;;7368050;19;20050;-64
2023/04/22 00:06:51;;;;;;;17.38;15.50;;;10.50;99.90;;;;;;7373174;19;20036;-64
2023/04/22 00:09:18;;;;;;;20.70;18.17;;;10.40;99.90;;;;;;7372684;19;20047;-64
2023/04/22 00:11:44;;;;;;;19.52;17.52;;;10.40;99.90;;;;;;7377362;19;20042;-63
2023/04/22 00:14:10;;;;;;;21.40;18.88;;;10.30;99.90;;;;;;7374338;19;20096;-63
2023/04/22 00:16:36;;;;;;;20.20;18.02;;;10.30;99.90;;;;;;7378994;19;20592;-64
2023/04/22 00:19:04;;;;;;;20.77;18.38;;;10.30;99.90;;;;;;7378790;19;20015;-64
2023/04/22 00:21:31;;;;;;;20.60;18.35;;;10.20;99.90;;;;;;7378524;19;20087;-64
2023/04/22 00:23:58;;;;;;;19.30;17.30;;;10.10;99.90;;;;;;7375410;19;20026;-64
2023/04/22 00:26:25;;;;;;;20.33;17.88;;;10.10;99.90;;;;;;7373561;19;20022;-64
2023/04/22 00:28:51;;;;;;;20.55;18.15;;;10.00;99.90;;;;;;7377693;19;20034;-64
2023/04/22 00:31:17;;;;;;;23.27;19.88;;;9.90;99.90;;;;;;7372747;19;20465;-64
2023/04/22 00:33:44;;;;;;;23.85;21.10;;;10.00;99.90;;;;;;7365106;19;20018;-64
2023/04/22 00:36:10;;;;;;;23.25;19.27;;;9.90;99.90;;;;;;7376152;19;20026;-63
2023/04/22 00:38:36;;;;;;;21.83;19.60;;;9.90;99.90;;;;;;7375104;19;20517;-64
2023/04/22 00:41:03;;;;;;;24.88;22.02;;;9.80;99.90;;;;;;7377680;19;20526;-64
2023/04/22 00:43:29;;;;;;;23.92;21.48;;;9.80;99.90;;;;;;7379281;19;20022;-64
2023/04/22 00:45:56;;;;;;;22.15;19.95;;;9.80;99.90;;;;;;7376442;19;20013;-65
2023/04/22 00:48:24;;;;;;;23.67;21.17;;;9.80;99.90;;;;;;7377110;19;20014;-64
2023/04/22 00:50:51;;;;;;;24.08;20.95;;;9.70;99.90;;;;;;7370641;19;20018;-64
2023/04/22 00:53:17;;;;;;;21.15;18.98;;;9.70;99.90;;;;;;7376086;19;20022;-64
2023/04/22 00:55:43;;;;;;;22.52;20.17;;;9.70;99.90;;;;;;7373816;19;20026;-64
2023/04/22 00:58:10;;;;;;;25.05;21.90;;;9.60;99.90;;;;;;7375310;19;20378;-64
2023/04/22 01:00:36;;;;;;;24.95;21.08;;;9.70;99.90;;;;;;7376984;19;20026;-65
2023/04/22 01:03:05;;;;;;;26.45;23.65;;;9.60;99.90;;;;;;7376287;19;20010;-64
2023/04/22 01:05:32;;;;;;;30.38;24.45;;;9.70;99.90;;;;;;7375259;19;20530;-64
2023/04/22 01:07:59;;;;;;;23.88;21.33;;;9.70;99.90;;;;;;7374252;19;20007;-64
2023/04/22 01:10:25;;;;;;;21.15;18.88;;;9.70;99.90;;;;;;7376854;19;20388;-64
2023/04/22 01:12:51;;;;;;;22.90;20.42;;;9.70;99.90;;;;;;7376999;19;20025;-64
2023/04/22 01:15:17;;;;;;;23.02;20.52;;;9.70;99.90;;;;;;7376801;19;20024;-64
2023/04/22 01:17:44;;;;;;;24.42;21.85;;;9.70;99.90;;;;;;7376319;19;20024;-64
2023/04/22 01:20:11;;;;;;;25.13;22.17;;;9.70;99.90;;;;;;7374844;19;20054;-64
2023/04/22 01:22:43;;;;;;;26.88;23.83;;;9.80;99.90;;;;;;7375577;19;20029;-64
2023/04/22 01:25:10;;;;;;;26.83;23.83;;;9.80;99.90;;;;;;7374669;19;20026;-64
2023/04/22 01:27:37;;;;;;;25.98;23.17;;;9.80;99.90;;;;;;7373784;19;20102;-64
2023/04/22 01:30:04;;;;;;;27.02;23.88;;;9.80;99.90;;;;;;7373068;19;20041;-64
2023/04/22 01:32:31;;;;;;;25.45;23.00;;;9.90;99.90;;;;;;7375626;19;20023;-64
2023/04/22 01:34:58;;;;;;;23.75;21.27;;;9.90;99.90;;;;;;7376611;19;20018;-64
2023/04/22 01:37:24;;;;;;;24.02;21.52;;;9.80;99.90;;;;;;7376801;19;20022;-64
2023/04/22 01:39:51;;;;;;;23.23;20.92;;;9.80;99.90;;;;;;7371612;19;20026;-64
2023/04/22 01:42:17;;;;;;;25.48;22.85;;;9.70;99.90;;;;;;7375667;19;20043;-64
2023/04/22 01:44:45;;;;;;;23.35;20.90;;;9.70;99.90;;;;;;7374522;19;20025;-64
2023/04/22 01:47:12;;;;;;;22.10;19.80;;;9.70;99.90;;;;;;7373601;19;20025;-64
2023/04/22 01:49:38;;;;;;;24.42;20.48;;;9.60;99.90;;;;;;7374512;19;20515;-64
2023/04/22 01:52:05;;;;;;;24.15;20.95;;;9.60;99.90;;;;;;7374023;19;20022;-64
2023/04/22 01:54:32;;;;;;;23.33;20.92;;;9.50;99.90;;;;;;7372702;19;20029;-64
2023/04/22 01:56:58;;;;;;;23.33;20.83;;;9.50;99.90;;;;;;7376027;19;20875;-64
2023/04/22 01:59:25;;;;;;;22.20;19.92;;;9.50;99.90;;;;;;7372397;19;20860;-65
2023/04/22 02:01:51;;;;;;;21.48;19.27;;;9.40;99.90;;;;;;7374683;19;20090;-64
2023/04/22 02:04:18;;;;;;;24.50;21.45;;;9.30;99.90;;;;;;7372452;19;20018;-64
2023/04/22 02:06:44;;;;;;;21.63;19.42;;;9.30;99.90;;;;;;7376316;19;20809;-64
2023/04/22 02:09:10;;;;;;;24.02;20.95;;;9.20;99.90;;;;;;7370456;19;20383;-64
2023/04/22 02:11:36;;;;;;;20.70;18.60;;;9.20;99.90;;;;;;7370019;19;20766;-63
2023/04/22 02:14:02;;;;;;;23.60;21.08;;;9.10;99.90;;;;;;7373246;19;20022;-64
2023/04/22 02:16:29;;;;;;;22.55;20.25;;;9.10;99.90;;;;;;7371066;19;20014;-64
2023/04/22 02:18:55;;;;;;;21.73;19.52;;;9.00;99.90;;;;;;7371713;19;20015;-64
2023/04/22 02:21:21;;;;;;;23.02;20.75;;;9.00;99.90;;;;;;7370358;19;20815;-64
2023/04/22 02:23:47;;;;;;;22.83;20.42;;;8.90;99.90;;;;;;7375556;19;20023;-65
2023/04/22 02:26:14;;;;;;;21.92;19.80;;;8.90;99.90;;;;;;7373072;19;20029;-64
2023/04/22 02:28:41;;;;;;;22.60;20.33;;;8.80;99.90;;;;;;7373507;19;20047;-63
2023/04/22 02:31:07;;;;;;;23.33;20.85;;;8.80;99.90;;;;;;7366495;19;20019;-64
2023/04/22 02:33:35;;;;;;;22.38;20.08;;;8.80;99.90;;;;;;7366301;19;20022;-63
2023/04/22 02:36:01;;;;;;;23.98;21.45;;;8.70;99.90;;;;;;7368552;19;20642;-64
2023/04/22 02:38:27;;;;;;;25.65;21.85;;;8.70;99.90;;;;;;7369659;19;20614;-64
2023/04/22 02:40:56;;;;;;;24.67;21.30;;;8.60;99.90;;;;;;7367016;19;20038;-64
2023/04/22 02:43:23;;;;;;;24.98;22.35;;;8.60;99.90;;;;;;7368444;19;20022;-63
2023/04/22 02:45:50;;;;;;;25.13;22.17;;;8.60;99.90;;;;;;7370643;19;20023;-64
2023/04/22 02:48:17;;;;;;;23.85;21.55;;;8.60;99.90;;;;;;7370047;19;20090;-64
2023/04/22 02:50:43;;;;;;;25.15;22.10;;;8.50;99.90;;;;;;7371182;19;20017;-64
2023/04/22 02:53:09;;;;;;;23.58;21.27;;;8.50;99.90;;;;;;7369992;19;20018;-64
2023/04/22 02:55:36;;;;;;;23.20;20.83;;;8.50;99.90;;;;;;7369857;19;20071;-64
2023/04/22 02:58:02;;;;;;;23.48;21.00;;;8.50;99.90;;;;;;7369287;19;20051;-64
2023/04/22 03:00:29;;;;;;;22.08;19.85;;;8.40;99.90;;;;;;7371929;19;20022;-65
2023/04/22 03:02:55;;;;;;;21.67;19.48;;;8.40;99.90;;;;;;7369923;19;20026;-64
2023/04/22 03:05:26;;;;;;;20.67;18.67;;;8.30;99.90;;;;;;7372841;19;20033;-65
2023/04/22 03:07:52;;;;;;;19.80;17.95;;;8.30;99.90;;;;;;7371936;19;20052;-65
2023/04/22 03:10:19;;;;;;;22.20;19.85;;;8.30;99.90;;;;;;7368032;19;20022;-64
2023/04/22 03:12:45;;;;;;;21.38;19.27;;;8.20;99.90;;;;;;7368623;19;20026;-64
2023/04/22 03:15:12;;;;;;;21.50;19.40;;;8.20;99.90;;;;;;7366366;19;20022;-63
2023/04/22 03:17:38;;;;;;;21.08;18.98;;;8.20;99.90;;;;;;7370815;19;20030;-64
2023/04/22 03:20:09;;;;;;;23.90;20.60;;;8.20;99.90;;;;;;7370660;19;20046;-64
2023/04/22 03:22:35;;;;;;;22.55;20.10;;;8.10;99.90;;;;;;7367387;19;20014;-63
2023/04/22 03:25:03;;;;;;;20.92;18.77;;;8.10;99.90;;;;;;7372073;19;20022;-66
2023/04/22 03:27:32;;;;;;;20.63;18.63;;;8.00;99.90;;;;;;7370027;19;20023;-65
2023/04/22 03:29:59;;;;;;;21.52;19.20;;;8.00;99.90;;;;;;7372719;19;20376;-65
2023/04/22 03:32:25;;;;;;;20.75;18.48;;;8.00;99.90;;;;;;7368881;19;20014;-64
2023/04/22 03:35:05;;;;;;;19.40;17.38;;;8.00;99.90;;;;;;7371450;19;20932;-64
2023/04/22 03:37:31;;;;;;;21.52;18.42;;;8.00;99.90;;;;;;7368183;19;20042;-65
2023/04/22 03:39:58;;;;;;;19.63;17.73;;;7.90;99.90;;;;;;7371370;19;20518;-64
2023/04/22 03:42:24;;;;;;;19.20;17.20;;;7.90;99.90;;;;;;7366500;19;20026;-64
2023/04/22 03:44:51;;;;;;;19.10;16.40;;;7.80;99.90;;;;;;7369943;19;20019;-64
2023/04/22 03:47:22;;;;;;;15.85;14.15;;;7.80;99.90;;;;;;7366590;19;20046;-64
2023/04/22 03:49:54;;;;;;;15.35;13.75;;;7.70;99.90;;;;;;7369080;19;20800;-65
2023/04/22 03:52:20;;;;;;;14.35;12.77;;;7.60;99.90;;;;;;7368790;19;20618;-64
2023/04/22 03:54:55;;;;;;;15.00;13.55;;;7.50;99.90;;;;;;7370150;19;20029;-65
2023/04/22 03:57:21;;;;;;;16.13;14.48;;;7.50;99.90;;;;;;7367765;19;20039;-65
2023/04/22 03:59:48;;;;;;;16.30;14.68;;;7.40;99.90;;;;;;7368622;19;20369;-65
2023/04/22 04:02:15;;;;;;;19.55;17.50;;;7.40;99.90;;;;;;7370033;19;20469;-64
2023/04/22 04:04:42;;;;;;;21.27;18.17;;;7.30;99.90;;;;;;7369005;19;20058;-65
2023/04/22 04:07:08;;;;;;;21.40;19.20;;;7.40;99.90;;;;;;7368860;19;20027;-65
2023/04/22 04:09:34;;;;;;;26.58;23.70;;;7.40;99.90;;;;;;7369246;19;20371;-65
2023/04/22 04:12:02;;;;;;;29.33;26.15;;;7.40;99.90;;;;;;7369778;19;20034;-65
2023/04/22 04:14:32;;;;;;;33.25;26.20;;;7.50;99.90;;;;;;7369826;19;20019;-65
2023/04/22 04:16:59;;;;;;;32.78;26.80;;;7.50;99.90;;;;;;7369605;19;20029;-65
2023/04/22 04:19:28;;;;;;;30.02;26.80;;;7.50;99.90;;;;;;7368405;19;20019;-65
2023/04/22 04:21:55;;;;;;;32.45;27.45;;;7.50;99.90;;;;;;7369602;19;20478;-65
2023/04/22 04:24:23;;;;;;;33.38;28.63;;;7.50;99.90;;;;;;7367716;19;20011;-65
2023/04/22 04:26:53;;;;;;;38.13;29.50;;;7.60;99.90;;;;;;7365652;19;20106;-65
2023/04/22 04:29:26;;;;;;;36.50;30.92;;;7.70;99.90;;;;;;7361851;19;20045;-63
2023/04/22 04:32:04;;;;;;;39.38;32.08;;;7.80;99.90;;;;;;7363268;19;20015;-63
2023/04/22 04:34:31;;;;;;;39.55;32.60;;;7.90;99.90;;;;;;7366357;19;20486;-65
2023/04/22 04:36:57;;;;;;;37.67;31.42;;;7.90;99.90;;;;;;7366199;19;20021;-65
2023/04/22 04:39:31;;;;;;;37.33;33.13;;;8.00;99.90;;;;;;7364406;19;20029;-63
2023/04/22 04:41:59;;;;;;;39.38;33.03;;;8.10;99.90;;;;;;7364068;19;20050;-63
2023/04/22 04:44:30;;;;;;;45.65;36.92;;;8.30;99.90;;;;;;7365349;19;20021;-63
2023/04/22 04:46:57;;;;;;;43.28;36.67;;;8.40;99.90;;;;;;7363421;19;20022;-63
2023/04/22 04:49:24;;;;;;;48.38;37.20;;;8.40;99.90;;;;;;7365861;19;20058;-63
2023/04/22 04:52:00;;;;;;;44.03;36.58;;;8.50;99.90;;;;;;7362145;19;20022;-63
2023/04/22 04:54:27;;;;;;;42.00;35.40;;;8.50;99.90;;;;;;7361253;19;20022;-63
2023/04/22 04:56:56;;;;;;;39.30;35.00;;;8.60;99.90;;;;;;7373199;19;20031;-64
2023/04/22 04:59:23;;;;;;;40.05;35.33;;;8.60;99.90;;;;;;7374774;19;20018;-65
2023/04/22 05:01:50;;;;;;;41.63;35.50;;;8.70;99.90;;;;;;7370232;19;20407;-63
2023/04/22 05:04:17;;;;;;;38.10;34.10;;;8.70;99.90;;;;;;7371037;19;20014;-65
2023/04/22 05:06:43;;;;;;;41.95;35.90;;;8.70;99.90;;;;;;7373783;19;20022;-65
2023/04/22 05:09:13;;;;;;;42.70;36.13;;;8.70;99.90;;;;;;7372613;19;20011;-65
2023/04/22 05:11:40;;;;;;;42.60;34.78;;;8.70;99.90;;;;;;7367040;19;21106;-63
2023/04/22 05:14:13;;;;;;;42.85;34.70;;;8.70;99.90;;;;;;7371891;19;20046;-65
2023/04/22 05:16:41;;;;;;;39.90;32.25;;;8.80;99.90;;;;;;7373645;19;20039;-65
2023/04/22 05:19:08;;;;;;;39.17;32.42;;;8.80;99.90;;;;;;7369786;19;20033;-63
2023/04/22 05:21:35;;;;;;;37.15;32.40;;;8.90;99.90;;;;;;7370821;19;20848;-63
2023/04/22 05:24:01;;;;;;;35.95;31.13;;;8.90;99.90;;;;;;7370047;19;20011;-65
2023/04/22 05:26:28;;;;;;;33.05;29.58;;;8.90;99.90;;;;;;7375082;19;21687;-65
2023/04/22 05:28:55;;;;;;;33.42;29.75;;;8.90;99.90;;;;;;7366061;19;20022;-65
2023/04/22 05:31:22;;;;;;;33.60;30.00;;;8.90;99.90;;;;;;7365992;19;20027;-65
2023/04/22 05:33:48;;;;;;;34.28;30.52;;;9.00;99.90;;;;;;7367283;19;20506;-65
2023/04/22 05:36:14;;;;;;;33.55;30.15;;;9.00;99.90;;;;;;7371014;19;20065;-64
2023/04/22 05:38:42;;;;;;;33.92;28.67;;;9.00;99.90;;;;;;7373594;19;20379;-64
2023/04/22 05:41:11;;;;;;;34.80;29.58;;;9.10;99.90;;;;;;7374785;19;20010;-64
2023/04/22 05:43:37;;;;;;;33.47;29.35;;;9.10;99.90;;;;;;7376918;19;20028;-66
2023/04/22 05:46:11;;;;;;;32.00;28.80;;;9.20;99.90;;;;;;7374376;19;20018;-64
2023/04/22 05:48:39;;;;;;;36.03;30.67;;;9.20;99.90;;;;;;7373327;19;20014;-65
2023/04/22 05:51:09;;;;;;;32.83;29.33;;;9.30;99.90;;;;;;7371241;19;20010;-63
2023/04/22 05:53:36;;;;;;;34.17;30.10;;;9.40;99.90;;;;;;7372364;19;20010;-63
2023/04/22 05:56:02;;;;;;;32.45;29.05;;;9.40;99.90;;;;;;7372217;19;20388;-63
2023/04/22 05:58:29;;;;;;;33.03;29.65;;;9.50;99.90;;;;;;7371185;19;20069;-65
2023/04/22 06:01:00;;;;;;;34.20;30.30;;;9.50;99.90;;;;;;7370830;19;20014;-65
2023/04/22 06:03:50;;;;;;;34.78;31.15;;;9.60;99.90;;;;;;7372065;19;21239;-65
2023/04/22 06:06:17;;;;;;;34.33;30.75;;;9.70;99.90;;;;;;7371882;19;20006;-65
2023/04/22 06:08:46;;;;;;;34.75;31.27;;;9.70;99.90;;;;;;7374868;19;20051;-65
2023/04/22 06:11:12;;;;;;;36.50;32.72;;;9.80;99.90;;;;;;7371347;19;20015;-62
2023/04/22 06:13:39;;;;;;;35.13;31.50;;;9.80;99.90;;;;;;7373429;19;20021;-65
2023/04/22 06:16:05;;;;;;;34.92;31.50;;;9.90;99.90;;;;;;7372808;19;20471;-65
2023/04/22 06:18:34;;;;;;;33.97;30.42;;;9.90;99.90;;;;;;7372141;19;20014;-64
2023/04/22 06:21:00;;;;;;;33.80;30.20;;;9.90;99.90;;;;;;7370269;19;20018;-64
2023/04/22 06:23:26;;;;;;;34.92;31.33;;;10.00;99.90;;;;;;7371973;19;20131;-65
2023/04/22 06:25:53;;;;;;;36.00;32.38;;;10.10;99.90;;;;;;7371766;19;20022;-65
2023/04/22 06:28:20;;;;;;;35.25;31.67;;;10.10;99.90;;;;;;7370574;19;20025;-65
2023/04/22 06:30:48;;;;;;;33.97;30.70;;;10.20;99.90;;;;;;7369886;19;20855;-64
2023/04/22 06:33:16;;;;;;;33.05;29.58;;;10.30;99.90;;;;;;7368308;19;20814;-65
2023/04/22 06:35:42;;;;;;;34.25;30.95;;;10.30;99.90;;;;;;7372865;19;20022;-65
2023/04/22 06:38:09;;;;;;;31.25;28.27;;;10.30;99.90;;;;;;7368636;19;20954;-65
2023/04/22 06:40:43;;;;;;;34.65;31.25;;;10.40;99.90;;;;;;7373758;19;21101;-67
2023/04/22 06:43:23;;;;;;;33.17;29.65;;;10.40;99.90;;;;;;7370125;19;20352;-65
2023/04/22 06:46:04;;;;;;;33.92;30.73;;;10.50;99.90;;;;;;7367127;19;20378;-65
2023/04/22 06:48:50;;;;;;;32.83;29.88;;;10.60;99.90;;;;;;7372024;19;20018;-65
2023/04/22 06:51:35;;;;;;;31.42;28.48;;;10.70;99.90;;;;;;7370190;19;20015;-64
2023/04/22 06:54:02;;;;;;;32.38;29.27;;;10.70;99.90;;;;;;7368550;19;20022;-64
2023/04/22 06:56:28;;;;;;;31.02;27.70;;;10.80;99.90;;;;;;7366609;19;20038;-63
2023/04/22 06:58:55;;;;;;;32.17;29.08;;;10.90;99.90;;;;;;7362701;19;20014;-64
2023/04/22 07:01:21;;;;;;;32.13;28.90;;;11.00;99.90;;;;;;7362563;19;20022;-63
2023/04/22 07:03:47;;;;;;;29.02;26.13;;;11.10;99.90;;;;;;7366626;19;20654;-63
2023/04/22 07:06:14;;;;;;;30.90;27.88;;;11.10;99.90;;;;;;7365737;19;20093;-64
2023/04/22 07:08:42;;;;;;;31.30;28.30;;;11.20;99.90;;;;;;7365767;19;20029;-64
2023/04/22 07:11:09;;;;;;;28.17;25.42;;;11.30;99.90;;;;;;7364507;19;20022;-63
2023/04/22 07:13:50;;;;;;;28.13;25.40;;;11.30;99.90;;;;;;7368656;19;20019;-64
2023/04/22 07:16:16;;;;;;;26.00;23.65;;;11.40;99.90;;;;;;7366558;19;20019;-63
2023/04/22 07:18:42;;;;;;;25.80;23.25;;;11.50;99.90;;;;;;7364506;19;20785;-64
2023/04/22 07:21:08;;;;;;;26.50;23.90;;;11.60;99.90;;;;;;7364816;19;20050;-64
2023/04/22 07:23:35;;;;;;;24.45;22.17;;;11.60;99.90;;;;;;7363073;19;20038;-64
2023/04/22 07:26:01;;;;;;;25.63;23.13;;;11.70;99.90;;;;;;7368607;19;20613;-64
2023/04/22 07:28:30;;;;;;;26.55;24.08;;;11.90;99.90;;;;;;7365055;19;20550;-65
2023/04/22 07:30:57;;;;;;;25.38;22.95;;;11.90;99.90;;;;;;7367583;19;20131;-65
2023/04/22 07:33:23;;;;;;;24.45;22.15;;;12.00;99.90;;;;;;7360504;19;20026;-65
2023/04/22 07:35:49;;;;;;;23.70;21.50;;;12.10;99.90;;;;;;7369790;19;20546;-65
2023/04/22 07:38:16;;;;;;;21.63;19.52;;;12.20;99.90;;;;;;7364922;19;20130;-64
2023/04/22 07:40:42;;;;;;;22.45;20.35;;;12.30;99.90;;;;;;7367704;19;20030;-64
2023/04/22 07:43:08;;;;;;;21.20;19.17;;;12.30;99.90;;;;;;7363085;19;20022;-66
2023/04/22 07:45:35;;;;;;;21.55;19.35;;;12.40;99.90;;;;;;7369416;19;20018;-65
2023/04/22 07:48:01;;;;;;;21.40;19.17;;;12.50;99.90;;;;;;7364529;19;20371;-65
2023/04/22 07:50:27;;;;;;;21.42;19.42;;;12.60;99.90;;;;;;7363782;19;20514;-66
2023/04/22 07:52:54;;;;;;;18.75;17.05;;;12.80;99.90;;;;;;7368546;19;20024;-65
2023/04/22 07:55:20;;;;;;;20.55;18.55;;;12.80;99.90;;;;;;7365787;19;20018;-66
2023/04/22 07:57:47;;;;;;;20.60;18.80;;;13.10;99.90;;;;;;7370018;19;20050;-66
2023/04/22 08:00:13;;;;;;;19.58;17.75;;;13.20;99.90;;;;;;7367436;19;20019;-66
2023/04/22 08:02:40;;;;;;;20.10;18.27;;;13.50;99.90;;;;;;7367358;19;20398;-66
2023/04/22 08:05:07;;;;;;;18.40;16.73;;;13.70;99.90;;;;;;7366505;19;20053;-65
2023/04/22 08:07:33;;;;;;;17.13;15.63;;;13.90;99.90;;;;;;7367492;19;20018;-65
2023/04/22 08:10:00;;;;;;;17.15;15.57;;;14.20;99.90;;;;;;7370089;19;20065;-64
2023/04/22 08:12:26;;;;;;;15.15;13.65;;;14.50;99.90;;;;;;7361906;19;21697;-65
2023/04/22 08:14:53;;;;;;;15.45;14.07;;;14.70;99.90;;;;;;7366721;19;20689;-64
2023/04/22 08:17:20;;;;;;;16.35;14.75;;;15.00;99.90;;;;;;7370122;19;20034;-65
2023/04/22 08:19:47;;;;;;;14.57;13.18;;;15.40;99.90;;;;;;7363118;19;20085;-65
2023/04/22 08:22:14;;;;;;;15.75;14.27;;;15.70;99.90;;;;;;7365891;19;20025;-64
2023/04/22 08:24:41;;;;;;;13.20;12.00;;;16.00;99.90;;;;;;7369752;19;20018;-65
2023/04/22 08:27:10;;;;;;;12.88;11.60;;;16.10;99.90;;;;;;7364629;19;20022;-63
2023/04/22 08:29:37;;;;;;;13.68;12.38;;;16.10;99.90;;;;;;7367052;19;20021;-63
2023/04/22 08:32:05;;;;;;;13.85;12.32;;;16.20;99.90;;;;;;7371639;19;20022;-64
2023/04/22 08:34:32;;;;;;;13.88;12.57;;;16.60;99.90;;;;;;7375625;19;20466;-66
2023/04/22 08:36:58;;;;;;;13.10;11.88;;;17.00;99.90;;;;;;7379880;19;20482;-67
2023/04/22 08:39:24;;;;;;;11.70;10.52;;;17.30;99.90;;;;;;7373303;19;20022;-66
2023/04/22 08:41:52;;;;;;;18.02;16.25;;;17.70;99.90;;;;;;7376770;19;20796;-66
2023/04/22 08:44:18;;;;;;;66.10;59.53;;;17.90;99.90;;;;;;7374506;19;20026;-65
2023/04/22 08:46:47;;;;;;;21.50;19.33;;;17.80;99.90;;;;;;7375055;19;20517;-63
2023/04/22 08:49:18;;;;;;;11.38;10.27;;;18.10;99.90;;;;;;7373182;19;20022;-65
2023/04/22 08:51:44;;;;;;;12.10;11.00;;;18.30;99.90;;;;;;7370735;19;20119;-64
2023/04/22 08:54:11;;;;;;;19.15;17.27;;;18.50;99.90;;;;;;7375840;19;20038;-65
2023/04/22 08:56:42;;;;;;;17.52;15.75;;;18.80;99.90;;;;;;7373969;19;20770;-65
2023/04/22 08:59:10;;;;;;;10.43;9.43;;;19.30;99.90;;;;;;7369698;19;20022;-65
2023/04/22 09:01:40;;;;;;;10.93;9.93;;;19.40;99.90;;;;;;7373499;19;20018;-65
2023/04/22 09:04:10;;;;;;;10.20;9.10;;;19.80;99.90;;;;;;7374308;19;20029;-64
2023/04/22 09:06:37;;;;;;;11.43;9.95;;;20.00;99.90;;;;;;7373739;19;20022;-65
2023/04/22 09:09:04;;;;;;;12.40;11.25;;;20.40;99.90;;;;;;7373243;19;20092;-63
2023/04/22 09:11:32;;;;;;;9.57;8.57;;;20.50;99.90;;;;;;7372454;19;20037;-64
2023/04/22 09:13:58;;;;;;;12.07;10.93;;;20.60;99.90;;;;;;7373325;19;20026;-65
2023/04/22 09:16:24;;;;;;;9.10;8.20;;;20.40;99.90;;;;;;7375377;19;20809;-68
2023/04/22 09:18:51;;;;;;;10.25;9.25;;;20.40;99.90;;;;;;7377388;19;20025;-66
2023/04/22 09:21:17;;;;;;;16.27;14.65;;;20.60;99.90;;;;;;7373775;19;20010;-64
2023/04/22 09:23:52;;;;;;;9.18;8.38;;;21.00;99.90;;;;;;7369071;19;20023;-66
2023/04/22 09:26:20;;;;;;;12.73;9.38;;;21.20;99.90;;;;;;7371210;19;20026;-65
2023/04/22 09:28:57;;;;;;;13.65;12.40;;;21.70;99.90;;;;;;7373860;19;20037;-66
2023/04/22 09:31:24;;;;;;;9.48;8.05;;;21.90;99.90;;;;;;7371008;19;20506;-64
2023/04/22 09:33:58;;;;;;;9.10;8.20;;;22.00;99.90;;;;;;7375070;19;20058;-66
2023/04/22 09:36:28;;;;;;;9.52;7.40;;;21.70;99.90;;;;;;7373580;19;20011;-66
2023/04/22 09:38:59;;;;;;;10.75;9.82;;;21.70;99.90;;;;;;7376515;19;20041;-66
2023/04/22 09:41:29;;;;;;;8.60;7.70;;;21.10;99.90;;;;;;7371557;19;20025;-61
2023/04/22 09:43:57;;;;;;;9.63;8.13;;;21.00;99.90;;;;;;7368118;19;20028;-63
2023/04/22 09:46:25;;;;;;;9.05;8.15;;;20.80;99.90;;;;;;7370160;19;20014;-63
2023/04/22 09:48:53;;;;;;;9.07;8.18;;;20.70;99.90;;;;;;7372153;19;20105;-65
2023/04/22 09:51:19;;;;;;;9.35;8.35;;;20.50;99.90;;;;;;7370383;19;20058;-63
2023/04/22 09:53:57;;;;;;;9.93;8.30;;;20.40;99.90;;;;;;7373502;19;21072;-65
2023/04/22 09:56:43;;;;;;;9.70;8.70;;;20.60;99.90;;;;;;7371107;19;20053;-63
2023/04/22 09:59:09;;;;;;;9.45;8.55;;;20.80;99.90;;;;;;7370274;19;20488;-63
2023/04/22 10:01:38;;;;;;;14.15;12.70;;;20.90;99.90;;;;;;7378227;19;20490;-64
2023/04/22 10:04:04;;;;;;;9.65;8.05;;;21.10;99.90;;;;;;7368166;19;20023;-65
2023/04/22 10:06:31;;;;;;;10.68;8.68;;;21.20;99.90;;;;;;7370029;19;20018;-65
2023/04/22 10:08:58;;;;;;;8.93;8.02;;;21.30;99.90;;;;;;7369564;19;20022;-64
2023/04/22 10:11:25;;;;;;;8.55;7.75;;;21.70;99.90;;;;;;7367190;19;20482;-65
2023/04/22 10:13:52;;;;;;;8.63;6.80;;;21.90;99.90;;;;;;7371362;19;20025;-65
2023/04/22 10:16:23;;;;;;;8.80;6.53;;;21.90;98.90;;;;;;7374524;19;20014;-64
2023/04/22 10:18:51;;;;;;;;;;;21.90;87.50;;;;;;7374847;19;20045;-64
2023/04/22 10:21:18;;;;;;;7.82;7.03;;;21.80;81.30;;;;;;7370045;19;19934;-63
2023/04/22 10:23:46;;;;;;;7.80;7.07;;;21.80;96.30;;;;;;7375015;19;20015;-66
2023/04/22 10:26:33;;;;;;;7.60;6.78;;;22.00;90.40;;;;;;7370256;19;20065;-66
2023/04/22 10:28:59;;;;;;;7.70;6.90;;;22.20;94.40;;;;;;7373950;19;20045;-66
2023/04/22 10:31:25;;;;;;;6.53;5.85;;;22.40;93.30;;;;;;7372273;19;20032;-66
2023/04/22 10:34:10;;;;;;;6.35;5.75;;;22.70;87.20;;;;;;7367335;19;20030;-66
2023/04/22 10:36:52;;;;;;;6.63;5.78;;;23.00;70.00;;;;;;7371245;19;20023;-66
2023/04/22 10:39:20;;;;;;;6.93;6.22;;;22.90;73.80;;;;;;7370931;19;20055;-66
2023/04/22 10:41:55;;;;;;;7.82;6.13;;;22.70;74.80;;;;;;7370902;19;20023;-66
2023/04/22 10:44:26;;;;;;;8.95;7.65;;;22.70;72.30;;;;;;7365222;19;20019;-66
2023/04/22 10:46:52;;;;;;;10.85;9.25;;;22.80;70.50;;;;;;7363056;19;20766;-64
2023/04/22 10:49:20;;;;;;;12.73;11.45;;;22.70;70.00;;;;;;7369401;19;20577;-63
2023/04/22 10:51:58;;;;;;;7.90;7.18;;;22.60;72.10;;;;;;7367198;19;20026;-64
2023/04/22 10:54:45;;;;;;;10.95;7.72;;;22.60;72.30;;;;;;7363664;19;20854;-64
2023/04/22 10:57:21;;;;;;;8.32;7.35;;;22.90;73.30;;;;;;7358457;19;20015;-64
2023/04/22 10:59:52;;;;;;;7.97;7.18;;;22.90;71.10;;;;;;7367524;19;20027;-64
2023/04/22 11:02:20;;;;;;;7.85;7.05;;;23.00;72.20;;;;;;7370069;19;20391;-66
2023/04/22 11:04:47;;;;;;;8.25;6.43;;;23.50;73.80;;;;;;7369444;19;20478;-66
2023/04/22 11:07:21;;;;;;;8.18;7.38;;;23.60;71.90;;;;;;7366695;19;20022;-66
2023/04/22 11:10:08;;;;;;;7.63;6.93;;;23.70;70.90;;;;;;7363453;19;20022;-66
2023/04/22 11:12:34;;;;;;;7.25;6.35;;;24.00;67.50;;;;;;7367713;19;20031;-67
2023/04/22 11:15:06;;;;;;;7.15;6.35;;;24.10;67.40;;;;;;7338499;19;20488;-66
2023/04/22 11:17:33;;;;;;;6.60;5.88;;;24.30;67.60;;;;;;7362757;19;20022;-66
2023/04/22 11:20:00;;;;;;;8.10;6.63;;;24.20;65.60;;;;;;7365320;19;20508;-66
2023/04/22 11:22:26;;;;;;;7.00;6.32;;;24.00;64.70;;;;;;7364543;19;20029;-66
2023/04/22 11:25:03;;;;;;;7.45;6.70;;;24.20;65.50;;;;;;7356135;19;20505;-66
2023/04/22 11:27:29;;;;;;;7.75;7.05;;;24.30;64.80;;;;;;7367620;19;20010;-65
2023/04/22 11:30:07;;;;;;;7.60;6.85;;;24.20;64.80;;;;;;7367979;19;20576;-65
2023/04/22 11:32:36;;;;;;;8.20;7.28;;;24.00;63.00;;;;;;7361869;19;20011;-65
2023/04/22 11:35:05;;;;;;;9.35;7.97;;;24.10;64.90;;;;;;7363921;19;20457;-66
2023/04/22 11:37:45;;;;;;;8.05;7.25;;;24.40;63.90;;;;;;7367392;19;20022;-65
2023/04/22 11:40:17;;;;;;;7.90;7.10;;;24.40;64.10;;;;;;7365902;19;20026;-66
2023/04/22 11:42:43;;;;;;;8.15;7.35;;;24.50;64.10;;;;;;7366226;19;20022;-66
2023/04/22 11:45:12;;;;;;;8.27;7.47;;;24.40;63.70;;;;;;7362861;19;20624;-66
2023/04/22 11:47:39;;;;;;;9.00;7.68;;;24.50;63.60;;;;;;7361976;19;20030;-66
2023/04/22 11:50:08;;;;;;;8.45;7.55;;;24.50;64.50;;;;;;7367361;19;20097;-65
2023/04/22 11:52:41;;;;;;;11.13;10.02;;;24.20;64.50;;;;;;7363450;19;20022;-66
2023/04/22 11:55:10;;;;;;;12.23;10.95;;;24.00;64.00;;;;;;7354960;19;21035;-64
2023/04/22 11:57:37;;;;;;;10.43;9.30;;;23.70;65.30;;;;;;7362065;19;20022;-64
2023/04/22 12:00:05;;;;;;;10.13;9.13;;;23.40;65.90;;;;;;7362215;19;20070;-64
2023/04/22 12:02:31;;;;;;;18.85;16.90;;;22.90;66.80;;;;;;7368009;19;20018;-69
2023/04/22 12:04:59;;;;;;;14.80;13.38;;;22.50;67.90;;;;;;7372280;19;20010;-69
2023/04/22 12:07:28;;;;;;;10.77;9.75;;;22.00;71.30;;;;;;7376882;19;20038;-69
2023/04/22 12:09:55;;;;;;;12.68;9.80;;;21.90;75.30;;;;;;7376331;19;20038;-69
2023/04/22 12:12:25;;;;;;;9.75;8.85;;;21.80;80.20;;;;;;7371210;19;20707;-64
2023/04/22 12:14:51;;;;;;;10.20;9.18;;;21.80;82.70;;;;;;7367404;19;20856;-66
2023/04/22 12:17:23;;;;;;;9.90;8.95;;;21.90;81.70;;;;;;7374521;19;20025;-66
2023/04/22 12:19:56;;;;;;;19.55;17.52;;;22.10;91.20;;;;;;7372814;19;20018;-65
2023/04/22 12:22:26;;;;;;;12.98;11.68;;;22.40;84.60;;;;;;7374305;19;20025;-65
2023/04/22 12:24:53;;;;;;;10.23;9.23;;;22.60;77.00;;;;;;7370799;19;20029;-64
2023/04/22 12:27:20;;;;;;;9.73;8.73;;;22.80;76.30;;;;;;7375415;19;20585;-64
2023/04/22 12:29:56;;;;;;;9.48;8.57;;;23.40;72.60;;;;;;7372755;19;20014;-64
2023/04/22 12:32:24;;;;;;;16.00;8.32;;;23.90;68.40;;;;;;7374267;19;20023;-64
2023/04/22 12:34:51;;;;;;;9.38;7.93;;;23.80;64.20;;;;;;7376411;19;20052;-63
2023/04/22 12:37:18;;;;;;;9.18;7.85;;;23.00;64.50;;;;;;7374420;19;20479;-63
2023/04/22 12:39:45;;;;;;;9.25;8.35;;;22.80;65.50;;;;;;7373666;19;20018;-64
2023/04/22 12:42:11;;;;;;;10.90;8.38;;;22.60;66.30;;;;;;7372847;19;21017;-64